createdAt,value
2023-05-06T00:00:23.581Z,8.90
2023-05-06T00:03:10.936Z,8.90
2023-05-06T00:05:38.214Z,8.80
2023-05-06T00:08:06.018Z,8.80
2023-05-06T00:10:33.302Z,8.90
2023-05-06T00:13:00.639Z,8.90
2023-05-06T00:15:29.173Z,8.80
2023-05-06T00:17:57.426Z,8.70
2023-05-06T00:20:25.614Z,8.70
2023-05-06T00:22:53.071Z,8.50
2023-05-06T00:25:20.530Z,8.50
2023-05-06T00:27:47.874Z,8.60
2023-05-06T00:30:15.130Z,8.50
2023-05-06T00:32:42.318Z,8.60
2023-05-06T00:35:09.957Z,8.50
2023-05-06T00:37:37.510Z,8.40
2023-05-06T00:40:05.804Z,8.50
2023-05-06T00:42:33.361Z,8.50
2023-05-06T00:45:00.591Z,8.60
2023-05-06T00:47:28.020Z,8.50
2023-05-06T00:49:55.277Z,8.40
2023-05-06T00:52:22.868Z,8.50
2023-05-06T00:54:50.183Z,8.40
2023-05-06T00:57:17.776Z,8.30
2023-05-06T00:59:44.955Z,8.30
2023-05-06T01:02:12.291Z,8.30
2023-05-06T01:04:41.635Z,8.20
2023-05-06T01:07:34.847Z,8.30
2023-05-06T01:10:10.606Z,8.20
2023-05-06T01:12:46.288Z,8.20
2023-05-06T01:15:31.290Z,8.30
2023-05-06T01:18:01.080Z,8.40
2023-05-06T01:20:31.151Z,8.30
2023-05-06T01:22:58.615Z,8.30
2023-05-06T01:25:25.824Z,8.20
2023-05-06T01:27:52.935Z,8.20
2023-05-06T01:30:23.137Z,8.10
2023-05-06T01:32:54.001Z,8.00
2023-05-06T01:35:23.881Z,8.20
2023-05-06T01:38:24.084Z,8.20
2023-05-06T01:40:55.455Z,8.20
2023-05-06T01:43:26.706Z,8.00
2023-05-06T01:45:56.416Z,7.90
2023-05-06T01:48:28.251Z,8.00
2023-05-06T01:50:55.956Z,8.00
2023-05-06T01:53:23.188Z,8.10
2023-05-06T01:55:50.406Z,8.00
2023-05-06T01:58:17.626Z,7.90
2023-05-06T02:00:44.764Z,8.00
2023-05-06T02:03:12.441Z,8.00
2023-05-06T02:05:39.719Z,7.90
2023-05-06T02:08:07.022Z,7.90
2023-05-06T02:10:34.198Z,7.90
2023-05-06T02:13:01.737Z,7.90
2023-05-06T02:15:28.993Z,7.90
2023-05-06T02:17:57.348Z,7.90
2023-05-06T02:20:24.696Z,7.90
2023-05-06T02:22:51.956Z,7.70
2023-05-06T02:25:19.208Z,7.80
2023-05-06T02:27:46.375Z,7.70
2023-05-06T02:30:14.312Z,7.70
2023-05-06T02:32:41.953Z,7.70
2023-05-06T02:35:09.945Z,7.70
2023-05-06T02:37:37.319Z,7.80
2023-05-06T02:40:06.900Z,7.60
2023-05-06T02:42:35.130Z,7.70
2023-05-06T02:45:02.749Z,7.50
2023-05-06T02:47:29.985Z,7.50
2023-05-06T02:49:57.231Z,7.50
2023-05-06T02:52:24.698Z,7.40
2023-05-06T02:54:52.408Z,7.60
2023-05-06T02:57:19.571Z,7.60
2023-05-06T02:59:46.715Z,7.60
2023-05-06T03:02:14.032Z,7.50
2023-05-06T03:04:41.441Z,7.60
2023-05-06T03:07:08.878Z,7.60
2023-05-06T03:09:36.159Z,7.50
2023-05-06T03:12:03.400Z,7.70
2023-05-06T03:14:30.832Z,7.50
2023-05-06T03:16:58.158Z,7.50
2023-05-06T03:19:25.370Z,7.60
2023-05-06T03:21:52.715Z,7.60
2023-05-06T03:24:20.548Z,7.50
2023-05-06T03:26:47.745Z,7.40
2023-05-06T03:29:14.933Z,7.50
2023-05-06T03:31:42.240Z,7.50
2023-05-06T03:34:09.459Z,7.40
2023-05-06T03:36:36.701Z,7.50
2023-05-06T03:39:03.945Z,7.50
2023-05-06T03:41:31.671Z,7.40
2023-05-06T03:43:58.825Z,7.50
2023-05-06T03:46:26.040Z,7.50
2023-05-06T03:48:53.365Z,7.50
2023-05-06T03:51:20.621Z,7.60
2023-05-06T03:53:48.849Z,7.70
2023-05-06T03:56:18.426Z,7.60
2023-05-06T03:58:46.197Z,7.70
2023-05-06T04:01:13.465Z,7.90
2023-05-06T04:03:40.848Z,7.80
2023-05-06T04:06:08.381Z,7.90
2023-05-06T04:08:35.586Z,7.80
2023-05-06T04:11:07.089Z,8.00
2023-05-06T04:13:35.330Z,8.10
2023-05-06T04:16:03.096Z,8.00
2023-05-06T04:18:30.747Z,8.10
2023-05-06T04:20:58.087Z,8.20
2023-05-06T04:23:25.442Z,8.40
2023-05-06T04:25:53.368Z,8.20
2023-05-06T04:28:20.866Z,8.30
2023-05-06T04:30:48.116Z,8.20
2023-05-06T04:33:15.318Z,8.00
2023-05-06T04:35:51.060Z,8.10
2023-05-06T04:38:18.743Z,8.00
2023-05-06T04:40:46.039Z,7.90
2023-05-06T04:43:14.096Z,8.10
2023-05-06T04:45:49.596Z,8.10
2023-05-06T04:48:22.459Z,8.20
2023-05-06T04:50:50.882Z,8.30
2023-05-06T04:53:18.247Z,8.40
2023-05-06T04:55:45.430Z,8.30
2023-05-06T04:58:12.593Z,8.10
2023-05-06T05:00:40.005Z,8.20
2023-05-06T05:03:07.354Z,8.00
2023-05-06T05:05:35.172Z,8.00
2023-05-06T05:08:02.402Z,8.00
2023-05-06T05:10:29.608Z,8.10
2023-05-06T05:12:56.928Z,8.10
2023-05-06T05:15:24.290Z,8.20
2023-05-06T05:17:51.587Z,8.20
2023-05-06T05:20:19.021Z,8.10
2023-05-06T05:22:46.538Z,8.10
2023-05-06T05:25:13.901Z,8.00
2023-05-06T05:27:43.232Z,8.10
2023-05-06T05:30:11.144Z,8.10
2023-05-06T05:32:38.464Z,8.10
2023-05-06T05:35:07.723Z,8.00
2023-05-06T05:37:35.169Z,7.90
2023-05-06T05:40:03.174Z,7.80
2023-05-06T05:42:33.787Z,7.80
2023-05-06T05:45:01.141Z,7.80
2023-05-06T05:47:28.327Z,8.00
2023-05-06T05:49:55.479Z,7.80
2023-05-06T05:52:22.772Z,8.00
2023-05-06T05:54:51.436Z,8.00
2023-05-06T05:57:18.702Z,8.00
2023-05-06T05:59:46.331Z,7.80
2023-05-06T06:02:13.582Z,8.00
2023-05-06T06:04:41.235Z,7.90
2023-05-06T06:07:08.549Z,8.10
2023-05-06T06:09:35.910Z,7.90
2023-05-06T06:12:03.230Z,7.80
2023-05-06T06:14:30.660Z,7.80
2023-05-06T06:16:57.864Z,7.70
2023-05-06T06:19:25.075Z,7.90
2023-05-06T06:21:52.318Z,7.70
2023-05-06T06:24:19.456Z,7.80
2023-05-06T06:26:46.710Z,7.80
2023-05-06T06:29:14.021Z,7.70
2023-05-06T06:31:41.305Z,7.80
2023-05-06T06:34:09.256Z,7.70
2023-05-06T06:36:36.557Z,7.70
2023-05-06T06:39:04.069Z,7.50
2023-05-06T06:41:31.218Z,7.60
2023-05-06T06:43:58.372Z,7.40
2023-05-06T06:46:26.307Z,7.40
2023-05-06T06:48:53.568Z,7.40
2023-05-06T06:51:21.039Z,7.70
2023-05-06T06:53:49.230Z,7.60
2023-05-06T06:56:16.392Z,7.50
2023-05-06T06:58:43.676Z,7.60
2023-05-06T07:01:11.234Z,7.70
2023-05-06T07:03:38.542Z,7.60
2023-05-06T07:06:06.081Z,7.60
2023-05-06T07:08:33.241Z,7.40
2023-05-06T07:11:00.591Z,7.50
2023-05-06T07:13:27.837Z,7.70
2023-05-06T07:15:54.996Z,7.60
2023-05-06T07:18:22.225Z,7.40
2023-05-06T07:20:49.405Z,7.40
2023-05-06T07:23:16.577Z,7.50
2023-05-06T07:25:43.760Z,7.40
2023-05-06T07:28:11.010Z,7.40
2023-05-06T07:30:39.164Z,7.50
2023-05-06T07:33:06.649Z,7.60
2023-05-06T07:35:34.028Z,7.60
2023-05-06T07:38:01.239Z,7.50
2023-05-06T07:40:28.509Z,7.40
2023-05-06T07:42:55.910Z,7.60
2023-05-06T07:45:24.564Z,7.50
2023-05-06T07:47:52.119Z,7.50
2023-05-06T07:50:19.497Z,7.50
2023-05-06T07:52:46.711Z,7.50
2023-05-06T07:55:13.986Z,7.50
2023-05-06T07:57:41.324Z,7.40
2023-05-06T08:00:10.284Z,7.20
2023-05-06T08:02:38.900Z,7.20
2023-05-06T08:05:08.169Z,7.20
2023-05-06T08:07:35.387Z,7.30
2023-05-06T08:10:02.859Z,7.20
2023-05-06T08:12:30.085Z,7.10
2023-05-06T08:14:57.349Z,7.30
2023-05-06T08:17:24.618Z,7.20
2023-05-06T08:19:51.790Z,7.20
2023-05-06T08:22:18.987Z,7.20
2023-05-06T08:24:46.166Z,7.00
2023-05-06T08:27:13.498Z,7.10
2023-05-06T08:29:40.700Z,7.00
2023-05-06T08:32:07.977Z,7.30
2023-05-06T08:34:35.224Z,7.40
2023-05-06T08:37:02.617Z,7.30
2023-05-06T08:39:30.959Z,7.50
2023-05-06T08:42:02.132Z,7.40
2023-05-06T08:44:29.770Z,7.40
2023-05-06T08:46:57.098Z,7.50
2023-05-06T08:49:24.403Z,7.40
2023-05-06T08:51:52.783Z,7.30
2023-05-06T08:54:22.800Z,7.30
2023-05-06T08:56:53.654Z,7.20
2023-05-06T08:59:24.682Z,7.30
2023-05-06T09:01:52.678Z,7.50
2023-05-06T09:04:20.222Z,7.70
2023-05-06T09:06:47.662Z,7.50
2023-05-06T09:09:15.128Z,7.30
2023-05-06T09:11:42.512Z,7.60
2023-05-06T09:14:14.189Z,7.50
2023-05-06T09:16:46.973Z,7.60
2023-05-06T09:19:14.886Z,7.50
2023-05-06T09:21:45.222Z,7.50
2023-05-06T09:24:14.607Z,7.70
2023-05-06T09:26:43.581Z,7.60
2023-05-06T09:29:11.161Z,7.20
2023-05-06T09:31:45.967Z,7.40
2023-05-06T09:34:13.925Z,7.80
2023-05-06T09:36:41.349Z,7.20
2023-05-06T09:39:10.199Z,7.30
2023-05-06T09:41:37.871Z,7.50
2023-05-06T09:44:06.423Z,7.40
2023-05-06T09:46:33.854Z,7.20
2023-05-06T09:49:01.679Z,7.30
2023-05-06T09:51:31.195Z,7.20
2023-05-06T09:54:00.925Z,7.00
2023-05-06T09:56:30.522Z,6.90
2023-05-06T09:59:01.569Z,6.90
2023-05-06T10:01:36.712Z,6.90
2023-05-06T10:04:09.274Z,6.90
2023-05-06T10:06:39.581Z,7.00
2023-05-06T10:09:08.498Z,7.10
2023-05-06T10:11:36.183Z,7.40
2023-05-06T10:14:04.614Z,7.10
2023-05-06T10:16:35.956Z,7.20
2023-05-06T10:19:06.900Z,7.20
2023-05-06T10:21:39.182Z,7.20
2023-05-06T10:24:09.571Z,7.20
2023-05-06T10:26:37.900Z,7.30
2023-05-06T10:29:10.158Z,7.40
2023-05-06T10:31:44.485Z,7.50
2023-05-06T10:34:11.852Z,7.50
2023-05-06T10:36:40.924Z,7.60
2023-05-06T10:39:10.326Z,7.20
2023-05-06T10:41:38.006Z,7.20
2023-05-06T10:44:06.248Z,7.20
2023-05-06T10:47:00.741Z,7.30
2023-05-06T10:49:28.290Z,7.50
2023-05-06T10:52:15.225Z,7.30
2023-05-06T10:54:50.825Z,7.50
2023-05-06T10:57:18.952Z,7.30
2023-05-06T10:59:47.188Z,7.40
2023-05-06T11:02:16.962Z,7.60
2023-05-06T11:04:50.578Z,7.50
2023-05-06T11:07:24.908Z,7.50
2023-05-06T11:10:06.966Z,7.70
2023-05-06T11:12:47.483Z,7.70
2023-05-06T11:15:40.626Z,7.70
2023-05-06T11:18:40.124Z,7.70
2023-05-06T11:21:07.842Z,7.80
2023-05-06T11:23:49.515Z,7.80
2023-05-06T11:26:16.906Z,8.00
2023-05-06T11:28:49.393Z,8.10
2023-05-06T11:31:17.463Z,8.00
2023-05-06T11:33:49.538Z,8.00
2023-05-06T11:36:20.779Z,8.00
2023-05-06T11:38:53.038Z,8.10
2023-05-06T11:41:23.265Z,8.20
2023-05-06T11:43:51.990Z,8.30
2023-05-06T11:46:20.565Z,8.50
2023-05-06T11:48:48.333Z,8.30
2023-05-06T11:51:16.360Z,8.10
2023-05-06T11:53:43.691Z,8.30
2023-05-06T11:56:10.962Z,8.30
2023-05-06T11:58:38.122Z,8.30
2023-05-06T12:01:05.374Z,8.30
2023-05-06T12:03:33.669Z,8.40
2023-05-06T12:06:01.496Z,8.40
2023-05-06T12:08:33.824Z,8.80
2023-05-06T12:11:03.343Z,8.70
2023-05-06T12:13:30.936Z,8.70
2023-05-06T12:16:00.161Z,8.70
2023-05-06T12:18:27.968Z,8.70
2023-05-06T12:21:02.641Z,8.90
2023-05-06T12:23:30.804Z,9.00
2023-05-06T12:26:06.578Z,8.90
2023-05-06T12:28:36.210Z,9.00
2023-05-06T12:31:24.316Z,9.20
2023-05-06T12:33:51.810Z,9.30
2023-05-06T12:36:19.781Z,9.50
2023-05-06T12:38:55.978Z,9.30
2023-05-06T12:41:25.384Z,9.40
2023-05-06T12:43:53.038Z,9.40
2023-05-06T12:46:20.336Z,9.40
2023-05-06T12:49:01.009Z,9.30
2023-05-06T12:51:30.841Z,9.20
2023-05-06T12:53:58.132Z,9.30
2023-05-06T12:56:25.444Z,9.00
2023-05-06T12:59:00.129Z,9.00
2023-05-06T13:01:27.602Z,9.10
2023-05-06T13:03:57.549Z,9.20
2023-05-06T13:06:24.723Z,8.90
2023-05-06T13:08:52.770Z,9.30
2023-05-06T13:11:21.666Z,9.30
2023-05-06T13:13:48.788Z,9.00
2023-05-06T13:16:16.092Z,9.30
2023-05-06T13:18:43.405Z,9.20
2023-05-06T13:21:10.723Z,9.20
2023-05-06T13:23:40.323Z,9.30
2023-05-06T13:26:08.179Z,9.20
2023-05-06T13:28:36.869Z,9.30
2023-05-06T13:31:04.693Z,9.20
2023-05-06T13:33:32.130Z,9.20
2023-05-06T13:35:59.310Z,9.00
2023-05-06T13:38:26.727Z,8.90
2023-05-06T13:40:54.747Z,9.00
2023-05-06T13:43:24.827Z,8.90
2023-05-06T13:45:52.599Z,8.90
2023-05-06T13:48:19.852Z,9.10
2023-05-06T13:50:48.031Z,8.90
2023-05-06T13:53:15.622Z,9.00
2023-05-06T13:55:44.430Z,9.30
2023-05-06T13:58:11.666Z,9.30
2023-05-06T14:00:39.042Z,9.20
2023-05-06T14:03:06.646Z,9.20
2023-05-06T14:05:34.255Z,9.30
2023-05-06T14:08:01.607Z,9.20
2023-05-06T14:10:28.790Z,9.30
2023-05-06T14:12:56.008Z,9.20
2023-05-06T14:15:24.086Z,9.20
2023-05-06T14:17:51.342Z,9.20
2023-05-06T14:20:18.607Z,9.10
2023-05-06T14:22:45.844Z,9.20
2023-05-06T14:25:13.622Z,9.40
2023-05-06T14:27:41.169Z,9.10
2023-05-06T14:30:09.796Z,9.20
2023-05-06T14:32:37.791Z,8.90
2023-05-06T14:35:06.205Z,8.90
2023-05-06T14:37:33.363Z,9.00
2023-05-06T14:40:00.493Z,9.20
2023-05-06T14:42:27.660Z,9.20
2023-05-06T14:44:55.214Z,9.10
2023-05-06T14:47:22.617Z,9.20
2023-05-06T14:49:50.443Z,9.00
2023-05-06T14:52:17.629Z,8.90
2023-05-06T14:54:45.053Z,9.10
2023-05-06T14:57:12.413Z,9.30
2023-05-06T14:59:39.638Z,9.20
2023-05-06T15:02:09.914Z,9.20
2023-05-06T15:04:37.500Z,9.00
2023-05-06T15:07:04.714Z,8.90
2023-05-06T15:09:32.030Z,9.10
2023-05-06T15:11:59.314Z,9.10
2023-05-06T15:14:26.643Z,9.00
2023-05-06T15:16:57.181Z,8.80
2023-05-06T15:19:25.217Z,8.80
2023-05-06T15:21:52.690Z,8.80
2023-05-06T15:24:20.048Z,8.80
2023-05-06T15:26:47.190Z,8.80
2023-05-06T15:29:14.465Z,8.70
2023-05-06T15:31:44.729Z,8.80
2023-05-06T15:34:12.897Z,8.70
2023-05-06T15:36:44.128Z,8.60
2023-05-06T15:39:11.781Z,8.70
2023-05-06T15:41:39.125Z,8.80
2023-05-06T15:44:06.658Z,8.70
2023-05-06T15:46:34.160Z,8.80
2023-05-06T15:51:32.216Z,8.70
2023-05-06T15:53:59.440Z,8.80
2023-05-06T15:56:27.289Z,8.70
2023-05-06T15:58:55.361Z,8.90
2023-05-06T16:01:35.473Z,8.90
2023-05-06T16:04:10.029Z,9.00
2023-05-06T16:06:37.500Z,9.00
2023-05-06T16:09:04.688Z,8.90
2023-05-06T16:11:31.981Z,8.70
2023-05-06T16:13:59.280Z,8.70
2023-05-06T16:16:26.471Z,8.70
2023-05-06T16:18:53.794Z,8.70
2023-05-06T16:21:21.104Z,8.60
2023-05-06T16:23:49.104Z,8.70
2023-05-06T16:26:16.829Z,8.80
2023-05-06T16:28:44.145Z,8.80
2023-05-06T16:31:11.439Z,8.90
2023-05-06T16:33:38.875Z,8.90
2023-05-06T16:36:07.795Z,8.90
2023-05-06T16:38:35.094Z,8.90
2023-05-06T16:41:02.565Z,8.70
2023-05-06T16:43:29.915Z,8.80
2023-05-06T16:45:57.209Z,8.90
2023-05-06T16:48:24.562Z,9.00
2023-05-06T16:50:52.183Z,9.00
2023-05-06T16:53:19.437Z,8.90
2023-05-06T16:55:48.856Z,8.90
2023-05-06T16:58:16.325Z,8.90
2023-05-06T17:00:44.059Z,8.80
2023-05-06T17:03:11.836Z,8.80
2023-05-06T17:05:39.483Z,8.80
2023-05-06T17:08:07.350Z,8.90
2023-05-06T17:10:35.107Z,8.70
2023-05-06T17:13:02.655Z,8.70
2023-05-06T17:15:30.391Z,8.70
2023-05-06T17:17:57.947Z,8.70
2023-05-06T17:20:28.065Z,8.70
2023-05-06T17:22:55.471Z,8.70
2023-05-06T17:25:23.440Z,8.80
2023-05-06T17:27:50.913Z,8.70
2023-05-06T17:30:18.154Z,8.80
2023-05-06T17:32:45.473Z,8.70
2023-05-06T17:35:13.681Z,8.80
2023-05-06T17:37:41.465Z,8.70
2023-05-06T17:40:09.208Z,8.80
2023-05-06T17:42:36.767Z,8.90
2023-05-06T17:45:04.830Z,8.90
2023-05-06T17:47:32.060Z,8.70
2023-05-06T17:49:59.450Z,8.80
2023-05-06T17:52:26.983Z,8.70
2023-05-06T17:55:10.775Z,8.80
2023-05-06T17:57:41.990Z,8.70
2023-05-06T18:00:11.677Z,8.80
2023-05-06T18:02:39.171Z,8.90
2023-05-06T18:05:06.848Z,8.80
2023-05-06T18:07:35.858Z,8.80
2023-05-06T18:10:03.290Z,8.80
2023-05-06T18:12:31.048Z,8.80
2023-05-06T18:14:58.704Z,8.80
2023-05-06T18:17:25.943Z,8.90
2023-05-06T18:19:53.336Z,8.90
2023-05-06T18:22:20.554Z,8.90
2023-05-06T18:24:47.887Z,8.90
2023-05-06T18:27:15.295Z,8.90
2023-05-06T18:29:42.515Z,8.90
2023-05-06T18:32:09.823Z,8.90
2023-05-06T18:34:37.147Z,8.90
2023-05-06T18:37:05.159Z,9.00
2023-05-06T18:39:32.367Z,9.00
2023-05-06T18:42:00.011Z,9.00
2023-05-06T18:44:27.297Z,8.90
2023-05-06T18:46:54.612Z,8.90
2023-05-06T18:49:21.852Z,9.00
2023-05-06T18:51:49.130Z,8.90
2023-05-06T18:54:16.415Z,8.90
2023-05-06T18:56:43.849Z,9.00
2023-05-06T18:59:11.850Z,9.00
2023-05-06T19:01:39.670Z,9.00
2023-05-06T19:04:07.089Z,9.00
2023-05-06T19:06:34.814Z,9.00
2023-05-06T19:09:02.012Z,8.90
2023-05-06T19:11:29.233Z,9.00
2023-05-06T19:13:56.438Z,8.90
2023-05-06T19:16:23.591Z,8.90
2023-05-06T19:18:50.885Z,8.90
2023-05-06T19:21:18.830Z,9.00
2023-05-06T19:23:46.263Z,8.90
2023-05-06T19:26:14.092Z,9.00
2023-05-06T19:28:41.372Z,8.90
2023-05-06T19:31:12.485Z,8.90
2023-05-06T19:33:40.423Z,9.00
2023-05-06T19:36:07.766Z,9.00
2023-05-06T19:38:35.429Z,8.90
2023-05-06T19:41:02.930Z,8.90
2023-05-06T19:43:30.187Z,8.90
2023-05-06T19:45:57.440Z,8.90
2023-05-06T19:48:24.786Z,9.00
2023-05-06T19:50:54.067Z,8.90
2023-05-06T19:53:22.893Z,8.90
2023-05-06T19:55:50.424Z,8.90
2023-05-06T19:58:19.008Z,8.90
2023-05-06T20:00:46.317Z,8.90
2023-05-06T20:03:13.857Z,9.00
2023-05-06T20:05:42.132Z,8.90
2023-05-06T20:08:11.502Z,9.00
2023-05-06T20:10:38.957Z,8.90
2023-05-06T20:13:07.177Z,8.90
2023-05-06T20:15:35.686Z,8.90
2023-05-06T20:18:02.947Z,9.00
2023-05-06T20:20:36.399Z,8.90
2023-05-06T20:23:03.687Z,9.00
2023-05-06T20:25:31.333Z,8.90
2023-05-06T20:27:59.651Z,8.90
2023-05-06T20:30:27.037Z,9.00
2023-05-06T20:32:54.542Z,9.00
2023-05-06T20:35:22.076Z,9.00
2023-05-06T20:37:49.637Z,9.00
2023-05-06T20:40:16.959Z,8.90
2023-05-06T20:42:44.255Z,8.80
2023-05-06T20:45:11.781Z,8.80
2023-05-06T20:47:39.301Z,8.80
2023-05-06T20:50:06.984Z,8.80
2023-05-06T20:52:34.316Z,8.80
2023-05-06T20:55:01.910Z,8.80
2023-05-06T20:57:29.096Z,8.90
2023-05-06T20:59:56.364Z,8.90
2023-05-06T21:02:23.667Z,9.00
2023-05-06T21:04:51.102Z,8.90
2023-05-06T21:07:18.409Z,8.80
2023-05-06T21:09:45.985Z,8.90
2023-05-06T21:12:13.324Z,8.80
2023-05-06T21:14:40.584Z,8.70
2023-05-06T21:17:08.583Z,8.80
2023-05-06T21:19:35.898Z,8.70
2023-05-06T21:22:03.096Z,8.70
2023-05-06T21:24:31.128Z,8.70
2023-05-06T21:26:58.614Z,8.80
2023-05-06T21:29:25.930Z,8.80
2023-05-06T21:31:53.173Z,8.80
2023-05-06T21:34:20.842Z,8.90
2023-05-06T21:36:48.032Z,8.80
2023-05-06T21:39:15.208Z,8.70
2023-05-06T21:41:42.907Z,8.80
2023-05-06T21:44:10.508Z,8.70
2023-05-06T21:46:38.087Z,8.70
2023-05-06T21:49:05.682Z,8.70
2023-05-06T21:51:35.317Z,8.70
2023-05-06T21:54:03.433Z,8.70
2023-05-06T21:56:30.646Z,8.60
2023-05-06T21:58:57.760Z,8.70
2023-05-06T22:01:29.426Z,8.80
2023-05-06T22:03:56.912Z,8.80
2023-05-06T22:06:24.556Z,8.90
2023-05-06T22:08:52.167Z,8.90
2023-05-06T22:11:19.447Z,8.90
2023-05-06T22:13:46.963Z,9.00
2023-05-06T22:16:14.325Z,9.10
2023-05-06T22:18:41.834Z,9.10
2023-05-06T22:21:09.921Z,9.30
2023-05-06T22:23:38.096Z,9.50
2023-05-06T22:26:05.333Z,9.50
2023-05-06T22:28:32.905Z,9.50
2023-05-06T22:31:00.434Z,9.50
2023-05-06T22:33:27.734Z,9.50
2023-05-06T22:35:55.656Z,9.70
2023-05-06T22:38:22.930Z,9.60
2023-05-06T22:40:50.497Z,9.50
2023-05-06T22:43:17.669Z,9.50
2023-05-06T22:45:44.877Z,9.40
2023-05-06T22:48:12.337Z,9.30
2023-05-06T22:50:40.113Z,9.50
2023-05-06T22:53:15.094Z,9.40
2023-05-06T22:55:42.957Z,9.30
2023-05-06T22:58:10.204Z,9.30
2023-05-06T23:00:37.522Z,9.30
2023-05-06T23:03:06.082Z,9.50
2023-05-06T23:05:33.563Z,9.60
2023-05-06T23:08:01.016Z,9.70
2023-05-06T23:10:28.183Z,9.70
2023-05-06T23:12:55.432Z,9.70
2023-05-06T23:15:23.197Z,9.70
2023-05-06T23:17:50.576Z,9.70
2023-05-06T23:20:18.093Z,9.70
2023-05-06T23:22:45.862Z,9.70
2023-05-06T23:25:13.443Z,9.60
2023-05-06T23:27:41.697Z,9.50
2023-05-06T23:30:10.653Z,9.50
2023-05-06T23:32:38.359Z,9.50
2023-05-06T23:35:07.770Z,9.40
2023-05-06T23:37:35.243Z,9.20
2023-05-06T23:40:02.821Z,9.20
2023-05-06T23:42:30.026Z,9.20
2023-05-06T23:44:58.402Z,9.20
2023-05-06T23:47:25.693Z,9.20
2023-05-06T23:49:52.873Z,9.10
2023-05-06T23:52:20.062Z,9.10
2023-05-06T23:54:47.413Z,8.90
2023-05-06T23:57:14.581Z,8.90
2023-05-06T23:59:41.841Z,8.80
